Time;durP1;ratioP1;P1;durP2;ratioP2;P2;SDS_P1;SDS_P2;PMS_P1;PMS_P2;Temp;Humidity;BMP_temperature;BMP_pressure;BME280_temperature;BME280_humidity;BME280_pressure;Samples;Min_cycle;Max_cycle;Signal;HPM_P1;HPM_P2
2021/07/27 00:00:40;;;;;;;3.95;2.83;;;;;;;;;;5092424;28;20569;-80
2021/07/27 00:03:06;;;;;;;4.38;2.85;;;;;;;;;;5092202;28;20411;-80
2021/07/27 00:05:33;;;;;;;3.47;2.22;;;;;;;;;;5092205;28;20048;-80
2021/07/27 00:07:59;;;;;;;2.83;2.10;;;;;;;;;;5092149;28;20590;-80
2021/07/27 00:10:27;;;;;;;6.72;3.65;;;;;;;;;;5095480;28;20044;-80
2021/07/27 00:12:54;;;;;;;4.20;3.13;;;;;;;;;;5091918;28;20575;-80
2021/07/27 00:15:20;;;;;;;3.33;2.83;;;;;;;;;;5091267;28;20052;-80
2021/07/27 00:17:48;;;;;;;4.53;2.90;;;;;;;;;;5092105;28;20465;-80
2021/07/27 00:20:15;;;;;;;3.08;2.40;;;;;;;;;;5091942;28;20056;-80
2021/07/27 00:22:42;;;;;;;4.55;2.55;;;;;;;;;;5076339;28;20055;-80
2021/07/27 00:25:09;;;;;;;3.53;1.83;;;;;;;;;;5071507;28;20052;-80
2021/07/27 00:27:36;;;;;;;5.10;2.78;;;;;;;;;;5071470;28;20048;-80
2021/07/27 00:30:03;;;;;;;10.55;3.55;;;;;;;;;;5071499;28;20052;-80
2021/07/27 00:32:30;;;;;;;5.60;2.00;;;;;;;;;;5071628;28;20049;-80
2021/07/27 00:34:58;;;;;;;4.25;2.22;;;;;;;;;;5071308;28;20064;-81
2021/07/27 00:37:28;;;;;;;3.85;2.08;;;;;;;;;;5071420;28;20048;-80
2021/07/27 00:39:55;;;;;;;2.97;2.05;;;;;;;;;;5071336;28;20048;-80
2021/07/27 00:42:21;;;;;;;4.85;3.17;;;;;;;;;;5071375;28;20060;-80
2021/07/27 00:44:48;;;;;;;3.85;2.00;;;;;;;;;;5071485;28;20057;-80
2021/07/27 00:47:14;;;;;;;4.85;2.40;;;;;;;;;;5071287;28;20514;-80
2021/07/27 00:49:41;;;;;;;2.88;2.17;;;;;;;;;;5071149;28;20439;-80
2021/07/27 00:52:09;;;;;;;3.13;2.15;;;;;;;;;;5071170;28;20044;-80
2021/07/27 00:54:35;;;;;;;8.48;2.50;;;;;;;;;;5070846;28;20101;-80
2021/07/27 00:57:02;;;;;;;3.25;2.15;;;;;;;;;;5071303;28;20052;-80
2021/07/27 00:59:28;;;;;;;5.40;2.28;;;;;;;;;;5070981;28;20048;-80
2021/07/27 01:01:55;;;;;;;3.83;2.47;;;;;;;;;;5070898;28;20040;-80
2021/07/27 01:04:22;;;;;;;14.65;2.38;;;;;;;;;;5071126;28;20496;-80
2021/07/27 01:06:49;;;;;;;3.20;2.15;;;;;;;;;;5070777;28;20126;-80
2021/07/27 01:09:17;;;;;;;4.43;2.88;;;;;;;;;;5081222;28;20047;-80
2021/07/27 01:11:44;;;;;;;2.90;2.25;;;;;;;;;;5091054;28;20051;-80
2021/07/27 01:14:11;;;;;;;5.07;2.92;;;;;;;;;;5090873;28;20507;-80
2021/07/27 01:16:38;;;;;;;3.05;2.08;;;;;;;;;;5091031;28;20075;-80
2021/07/27 01:19:14;;;;;;;2.15;1.55;;;;;;;;;;5090973;28;20048;-80
2021/07/27 01:38:38;;;;;;;3.90;2.47;;;;;;;;;;4988919;28;20101;-80
2021/07/27 01:42:04;;;;;;;3.65;2.58;;;;;;;;;;4988722;28;20046;-80
2021/07/27 01:43:53;;;;;;;4.43;2.88;;;;;;;;;;5061385;28;20052;-80
2021/07/27 01:46:23;;;;;;;7.82;3.28;;;;;;;;;;5090774;28;20072;-81
2021/07/27 01:48:49;;;;;;;3.60;2.30;;;;;;;;;;5090814;28;20048;-80
2021/07/27 01:51:25;;;;;;;3.90;2.65;;;;;;;;;;5090823;28;20051;-80
2021/07/27 01:53:53;;;;;;;3.33;2.40;;;;;;;;;;5090724;28;20434;-80
2021/07/27 01:56:21;;;;;;;5.47;2.60;;;;;;;;;;5090506;28;20492;-80
2021/07/27 01:58:48;;;;;;;3.45;2.95;;;;;;;;;;5090658;28;20062;-80
2021/07/27 02:01:15;;;;;;;3.85;2.47;;;;;;;;;;5090455;28;20044;-80
2021/07/27 02:03:41;;;;;;;11.00;4.57;;;;;;;;;;5090907;28;20055;-80
2021/07/27 02:06:08;;;;;;;4.47;2.55;;;;;;;;;;5090465;28;20055;-81
2021/07/27 02:08:34;;;;;;;5.88;3.67;;;;;;;;;;5090303;28;20059;-80
2021/07/27 02:11:03;;;;;;;5.03;2.33;;;;;;;;;;5090557;28;20052;-81
2021/07/27 02:13:47;;;;;;;4.95;2.90;;;;;;;;;;5090333;28;20122;-80
2021/07/27 02:16:13;;;;;;;2.17;1.92;;;;;;;;;;5090688;28;21050;-80
2021/07/27 02:18:40;;;;;;;2.78;2.25;;;;;;;;;;5090495;28;20598;-80
2021/07/27 02:21:06;;;;;;;5.38;3.08;;;;;;;;;;5090799;28;20484;-80
2021/07/27 02:23:33;;;;;;;3.47;2.55;;;;;;;;;;5090479;28;20048;-80
2021/07/27 02:25:59;;;;;;;3.50;2.30;;;;;;;;;;5090296;28;20094;-80
2021/07/27 02:28:26;;;;;;;3.45;2.42;;;;;;;;;;5090339;28;20101;-80
2021/07/27 02:30:55;;;;;;;7.65;2.72;;;;;;;;;;5090568;28;20056;-81
2021/07/27 02:33:22;;;;;;;4.38;3.05;;;;;;;;;;5090340;28;20052;-80
2021/07/27 02:35:49;;;;;;;3.60;2.03;;;;;;;;;;5090343;28;20044;-80
2021/07/27 02:38:16;;;;;;;4.43;2.30;;;;;;;;;;5090395;28;20476;-80
2021/07/27 02:40:43;;;;;;;3.63;2.47;;;;;;;;;;5093710;28;20055;-81
2021/07/27 02:43:10;;;;;;;2.83;2.50;;;;;;;;;;5094138;28;20892;-80
2021/07/27 02:45:36;;;;;;;3.78;2.30;;;;;;;;;;5093814;28;20048;-80
2021/07/27 02:48:05;;;;;;;2.72;2.20;;;;;;;;;;5093925;28;20051;-81
2021/07/27 02:50:31;;;;;;;3.65;2.33;;;;;;;;;;5093837;28;20105;-80
2021/07/27 02:52:58;;;;;;;3.45;2.33;;;;;;;;;;5093757;28;20469;-80
2021/07/27 02:55:24;;;;;;;7.47;2.40;;;;;;;;;;5093652;28;20120;-80
2021/07/27 02:57:51;;;;;;;3.83;2.72;;;;;;;;;;5093827;28;20449;-80
2021/07/27 03:00:18;;;;;;;3.85;2.50;;;;;;;;;;5093702;28;20048;-80
2021/07/27 03:02:45;;;;;;;3.00;2.70;;;;;;;;;;5093578;28;20545;-81
2021/07/27 03:05:14;;;;;;;3.83;2.63;;;;;;;;;;5093508;28;20159;-80
2021/07/27 03:07:49;;;;;;;6.43;3.08;;;;;;;;;;5093256;28;20048;-80
2021/07/27 03:10:20;;;;;;;3.95;2.17;;;;;;;;;;5093397;28;20052;-81
2021/07/27 03:12:47;;;;;;;3.40;2.72;;;;;;;;;;5093565;28;20097;-80
2021/07/27 03:15:14;;;;;;;3.47;2.08;;;;;;;;;;5093120;28;20063;-81
2021/07/27 03:17:41;;;;;;;4.45;2.13;;;;;;;;;;5093093;28;20087;-80
2021/07/27 03:20:07;;;;;;;3.47;2.67;;;;;;;;;;5093057;28;20051;-81
2021/07/27 03:22:35;;;;;;;4.60;3.10;;;;;;;;;;5082074;28;20093;-80
2021/07/27 03:25:02;;;;;;;4.85;3.03;;;;;;;;;;5056952;28;20052;-82
2021/07/27 03:27:28;;;;;;;4.50;2.72;;;;;;;;;;5072988;28;20044;-82
2021/07/27 03:29:55;;;;;;;2.22;1.73;;;;;;;;;;5072708;28;20507;-81
2021/07/27 03:32:21;;;;;;;3.17;1.92;;;;;;;;;;5073139;28;20052;-81
2021/07/27 03:34:48;;;;;;;4.18;2.60;;;;;;;;;;5072490;28;20408;-81
2021/07/27 03:37:14;;;;;;;13.60;4.38;;;;;;;;;;5072865;28;20049;-81
2021/07/27 03:39:42;;;;;;;10.98;3.22;;;;;;;;;;5072531;28;20048;-81
2021/07/27 03:42:09;;;;;;;5.15;2.33;;;;;;;;;;5072605;28;20546;-81
2021/07/27 03:44:35;;;;;;;7.10;3.58;;;;;;;;;;5072506;28;20049;-81
2021/07/27 03:47:07;;;;;;;5.25;3.42;;;;;;;;;;5072496;28;20044;-81
2021/07/27 03:49:33;;;;;;;6.82;4.10;;;;;;;;;;5072195;28;20045;-81
2021/07/27 03:52:00;;;;;;;2.53;1.75;;;;;;;;;;5072371;28;20099;-81
2021/07/27 03:54:27;;;;;;;5.15;1.98;;;;;;;;;;5072384;28;20420;-80
2021/07/27 03:56:55;;;;;;;3.90;2.58;;;;;;;;;;5072082;28;20063;-80
2021/07/27 03:59:21;;;;;;;2.75;2.10;;;;;;;;;;5071699;28;20492;-81
2021/07/27 04:01:48;;;;;;;2.72;1.83;;;;;;;;;;5070210;28;20048;-81
2021/07/27 04:04:15;;;;;;;4.75;2.63;;;;;;;;;;5070893;28;20063;-81
2021/07/27 04:06:42;;;;;;;3.90;2.45;;;;;;;;;;5072000;28;20055;-81
2021/07/27 04:09:08;;;;;;;4.53;3.08;;;;;;;;;;5072032;28;20052;-81
2021/07/27 04:11:35;;;;;;;4.80;3.10;;;;;;;;;;5071983;28;20412;-81
2021/07/27 04:14:03;;;;;;;5.03;3.92;;;;;;;;;;5071804;28;20571;-81
2021/07/27 04:16:30;;;;;;;10.65;4.03;;;;;;;;;;5071627;28;20048;-81
2021/07/27 04:18:56;;;;;;;4.75;3.05;;;;;;;;;;5071754;28;20549;-81
2021/07/27 04:21:23;;;;;;;4.82;2.33;;;;;;;;;;5071992;28;20052;-81
2021/07/27 04:23:49;;;;;;;3.30;2.83;;;;;;;;;;5071758;28;20052;-81
2021/07/27 04:26:16;;;;;;;5.90;2.63;;;;;;;;;;5071793;28;20049;-81
2021/07/27 04:28:42;;;;;;;4.05;2.05;;;;;;;;;;5071691;28;20063;-81
2021/07/27 04:31:10;;;;;;;6.43;2.50;;;;;;;;;;5071479;28;20045;-81
2021/07/27 04:33:38;;;;;;;4.72;3.45;;;;;;;;;;5071707;28;20049;-81
2021/07/27 04:36:05;;;;;;;4.55;3.20;;;;;;;;;;5071316;28;20567;-80
2021/07/27 04:38:31;;;;;;;6.45;2.30;;;;;;;;;;5071577;28;20067;-80
2021/07/27 04:40:58;;;;;;;5.95;4.00;;;;;;;;;;5071209;28;20381;-80
2021/07/27 04:43:25;;;;;;;23.95;3.60;;;;;;;;;;5071358;28;20079;-80
2021/07/27 04:45:51;;;;;;;2.95;2.38;;;;;;;;;;5071437;28;20053;-79
2021/07/27 04:48:19;;;;;;;3.50;2.90;;;;;;;;;;5071446;28;20052;-80
2021/07/27 04:50:46;;;;;;;6.50;3.55;;;;;;;;;;5071227;28;20590;-80
2021/07/27 04:53:14;;;;;;;5.03;3.67;;;;;;;;;;5071215;28;20071;-81
2021/07/27 04:55:41;;;;;;;5.40;3.17;;;;;;;;;;5071083;28;20055;-81
2021/07/27 04:58:07;;;;;;;3.25;2.25;;;;;;;;;;5071042;28;20052;-80
2021/07/27 05:00:34;;;;;;;3.63;2.35;;;;;;;;;;4977528;28;20051;-80
2021/07/27 05:03:01;;;;;;;4.55;2.92;;;;;;;;;;5077619;28;20059;-80
2021/07/27 05:05:29;;;;;;;2.80;2.50;;;;;;;;;;5071162;28;20053;-80
2021/07/27 05:07:55;;;;;;;8.07;3.25;;;;;;;;;;5070889;28;20052;-80
2021/07/27 05:10:21;;;;;;;4.07;2.42;;;;;;;;;;5071257;28;20049;-80
2021/07/27 05:12:48;;;;;;;6.15;3.17;;;;;;;;;;5068258;28;20048;-80
2021/07/27 05:15:14;;;;;;;5.60;3.35;;;;;;;;;;5071146;28;20106;-81
2021/07/27 05:17:41;;;;;;;4.43;2.88;;;;;;;;;;5070740;28;20071;-81
2021/07/27 05:20:08;;;;;;;5.22;3.28;;;;;;;;;;5070856;28;20484;-80
2021/07/27 05:22:37;;;;;;;3.20;2.47;;;;;;;;;;5070832;28;20492;-80
2021/07/27 05:25:03;;;;;;;3.38;2.15;;;;;;;;;;5070815;28;20055;-80
2021/07/27 05:27:33;;;;;;;4.25;2.63;;;;;;;;;;5070603;28;20393;-80
2021/07/27 05:29:59;;;;;;;5.75;2.67;;;;;;;;;;5070886;28;20098;-80
2021/07/27 05:32:26;;;;;;;5.30;3.38;;;;;;;;;;5070563;28;20488;-80
2021/07/27 05:34:53;;;;;;;3.28;2.47;;;;;;;;;;5070627;28;20060;-81
2021/07/27 05:37:19;;;;;;;5.10;3.53;;;;;;;;;;5070520;28;20044;-80
2021/07/27 05:39:47;;;;;;;5.32;3.42;;;;;;;;;;5070612;28;20496;-80
2021/07/27 05:42:14;;;;;;;6.05;4.13;;;;;;;;;;5070814;28;20060;-80
2021/07/27 05:44:40;;;;;;;7.78;3.65;;;;;;;;;;5070816;28;20126;-80
2021/07/27 05:47:07;;;;;;;10.07;6.10;;;;;;;;;;5070431;28;20057;-80
2021/07/27 05:49:35;;;;;;;4.72;3.47;;;;;;;;;;5070432;28;20408;-81
2021/07/27 05:52:02;;;;;;;6.72;4.55;;;;;;;;;;5070540;28;20124;-80
2021/07/27 05:54:29;;;;;;;11.38;4.72;;;;;;;;;;5070336;28;20419;-80
2021/07/27 05:56:57;;;;;;;7.13;5.03;;;;;;;;;;5070600;28;20110;-81
2021/07/27 05:59:24;;;;;;;7.45;4.85;;;;;;;;;;5070427;28;20048;-80
2021/07/27 06:01:52;;;;;;;8.63;5.10;;;;;;;;;;5070453;28;20053;-80
2021/07/27 06:04:19;;;;;;;17.40;4.93;;;;;;;;;;5070549;28;20102;-80
2021/07/27 06:06:45;;;;;;;8.68;4.93;;;;;;;;;;5070863;28;20040;-80
2021/07/27 06:09:12;;;;;;;8.80;5.65;;;;;;;;;;5070455;28;20498;-80
2021/07/27 06:11:39;;;;;;;10.73;6.55;;;;;;;;;;5070588;28;20055;-79
2021/07/27 06:14:07;;;;;;;10.38;6.57;;;;;;;;;;5071771;28;20078;-80
2021/07/27 06:16:35;;;;;;;10.27;5.95;;;;;;;;;;5074225;28;20052;-80
2021/07/27 06:19:01;;;;;;;9.48;5.80;;;;;;;;;;5074057;28;20090;-81
2021/07/27 06:21:28;;;;;;;13.13;6.63;;;;;;;;;;5073983;28;20488;-81
2021/07/27 06:23:55;;;;;;;7.35;5.72;;;;;;;;;;5073890;28;20048;-80
2021/07/27 06:26:21;;;;;;;8.82;5.60;;;;;;;;;;5074056;28;20048;-81
2021/07/27 06:28:48;;;;;;;7.68;4.95;;;;;;;;;;5073990;28;20041;-81
2021/07/27 06:31:16;;;;;;;10.10;4.55;;;;;;;;;;5073755;28;20052;-80
2021/07/27 06:33:43;;;;;;;10.35;5.05;;;;;;;;;;5073889;28;20057;-81
2021/07/27 06:36:10;;;;;;;6.95;4.40;;;;;;;;;;5073514;28;20134;-80
2021/07/27 06:38:36;;;;;;;9.82;5.65;;;;;;;;;;5073917;28;20408;-81
2021/07/27 06:41:05;;;;;;;6.88;3.92;;;;;;;;;;5073472;28;20094;-81
2021/07/27 06:43:32;;;;;;;8.93;5.45;;;;;;;;;;5073550;28;20056;-81
2021/07/27 06:45:58;;;;;;;8.95;4.45;;;;;;;;;;5073517;28;20055;-80
2021/07/27 06:48:26;;;;;;;8.45;4.28;;;;;;;;;;5073449;28;20098;-81
2021/07/27 06:50:53;;;;;;;8.25;4.63;;;;;;;;;;5073406;28;20056;-81
2021/07/27 06:53:19;;;;;;;9.88;4.13;;;;;;;;;;5073467;28;20106;-81
2021/07/27 06:55:46;;;;;;;5.20;3.22;;;;;;;;;;5073611;28;20109;-81
2021/07/27 06:58:12;;;;;;;12.43;3.75;;;;;;;;;;5073322;28;20049;-81
2021/07/27 07:00:39;;;;;;;5.20;2.85;;;;;;;;;;5073299;28;20049;-81
2021/07/27 07:03:06;;;;;;;7.13;3.65;;;;;;;;;;5073143;28;20048;-81
2021/07/27 07:05:34;;;;;;;5.22;3.92;;;;;;;;;;5073368;28;20055;-80
2021/07/27 07:08:01;;;;;;;5.80;4.13;;;;;;;;;;5073353;28;20055;-80
2021/07/27 07:10:27;;;;;;;9.15;3.80;;;;;;;;;;5073365;28;20052;-81
2021/07/27 07:12:54;;;;;;;18.27;3.72;;;;;;;;;;5073250;28;20045;-81
2021/07/27 07:15:20;;;;;;;10.85;2.63;;;;;;;;;;5073241;28;20059;-81
2021/07/27 07:17:47;;;;;;;7.65;4.18;;;;;;;;;;5072838;28;20052;-81
2021/07/27 07:20:15;;;;;;;4.55;2.63;;;;;;;;;;5073012;28;20094;-81
2021/07/27 07:22:43;;;;;;;3.63;2.25;;;;;;;;;;5073104;28;20053;-81
2021/07/27 07:25:09;;;;;;;5.47;2.90;;;;;;;;;;5072625;28;20048;-80
2021/07/27 07:27:36;;;;;;;5.07;3.10;;;;;;;;;;5072899;28;20055;-78
2021/07/27 07:30:02;;;;;;;3.13;2.38;;;;;;;;;;5072285;28;20052;-80
2021/07/27 07:32:29;;;;;;;3.13;2.10;;;;;;;;;;5072332;28;20060;-82
2021/07/27 07:34:55;;;;;;;3.33;2.33;;;;;;;;;;5072817;28;20052;-81
2021/07/27 07:37:22;;;;;;;3.30;2.50;;;;;;;;;;5072490;28;20098;-81
2021/07/27 07:39:50;;;;;;;7.68;3.55;;;;;;;;;;5072528;28;20090;-80
2021/07/27 07:42:16;;;;;;;5.40;2.55;;;;;;;;;;5072586;28;20052;-81
2021/07/27 07:44:43;;;;;;;3.05;2.10;;;;;;;;;;5072567;28;20056;-81
2021/07/27 07:47:09;;;;;;;6.72;2.13;;;;;;;;;;5072722;28;20385;-80
2021/07/27 07:49:36;;;;;;;3.15;2.20;;;;;;;;;;5072609;28;20045;-79
2021/07/27 07:52:02;;;;;;;5.35;2.75;;;;;;;;;;5072489;28;20044;-81
2021/07/27 07:54:30;;;;;;;2.47;1.88;;;;;;;;;;5072277;28;20041;-81
2021/07/27 07:56:58;;;;;;;3.28;2.13;;;;;;;;;;5072111;28;20052;-81
2021/07/27 07:59:25;;;;;;;3.38;2.28;;;;;;;;;;5072071;28;20040;-78
2021/07/27 08:01:55;;;;;;;8.50;2.60;;;;;;;;;;5072373;28;20052;-79
2021/07/27 08:04:22;;;;;;;3.42;2.53;;;;;;;;;;5072014;28;20404;-79
2021/07/27 08:06:49;;;;;;;3.38;2.20;;;;;;;;;;5072103;28;20054;-79
2021/07/27 08:09:15;;;;;;;5.72;2.17;;;;;;;;;;5072110;28;20048;-76
2021/07/27 08:11:41;;;;;;;3.75;2.67;;;;;;;;;;5071899;28;20098;-79
2021/07/27 08:14:11;;;;;;;4.68;2.40;;;;;;;;;;5071762;28;20098;-79
2021/07/27 08:16:37;;;;;;;4.32;2.33;;;;;;;;;;5071818;28;20101;-79
2021/07/27 08:19:04;;;;;;;4.28;2.65;;;;;;;;;;5071853;28;20048;-77
2021/07/27 08:21:31;;;;;;;3.17;2.10;;;;;;;;;;5071928;28;20052;-80
2021/07/27 08:23:57;;;;;;;6.07;2.63;;;;;;;;;;5071844;28;20048;-80
2021/07/27 08:26:24;;;;;;;3.47;2.30;;;;;;;;;;5071521;28;20048;-80
2021/07/27 08:28:50;;;;;;;3.28;1.98;;;;;;;;;;5071834;28;20078;-79
2021/07/27 08:31:18;;;;;;;3.60;2.38;;;;;;;;;;5071542;28;20488;-79
2021/07/27 08:33:45;;;;;;;3.53;2.42;;;;;;;;;;5071584;28;20052;-80
2021/07/27 08:36:11;;;;;;;5.97;3.15;;;;;;;;;;5071137;28;20110;-78
2021/07/27 08:38:38;;;;;;;4.47;2.10;;;;;;;;;;5071134;28;20056;-79
2021/07/27 08:41:06;;;;;;;5.55;3.03;;;;;;;;;;5071145;28;20105;-79
2021/07/27 08:43:32;;;;;;;3.55;2.47;;;;;;;;;;5071335;28;20052;-79
2021/07/27 08:46:00;;;;;;;4.43;2.15;;;;;;;;;;5071245;28;20451;-80
2021/07/27 08:48:28;;;;;;;7.25;3.35;;;;;;;;;;5071353;28;20052;-78
2021/07/27 08:50:54;;;;;;;4.75;3.30;;;;;;;;;;5071315;28;20053;-78
2021/07/27 08:53:21;;;;;;;5.15;2.92;;;;;;;;;;5071185;28;20492;-80
2021/07/27 08:55:48;;;;;;;5.85;3.30;;;;;;;;;;5070987;28;20055;-80
2021/07/27 08:58:14;;;;;;;4.97;3.20;;;;;;;;;;5070885;28;20052;-79
2021/07/27 09:00:41;;;;;;;8.25;3.65;;;;;;;;;;5069047;28;20075;-78
2021/07/27 09:03:09;;;;;;;5.35;3.20;;;;;;;;;;5071077;28;20044;-79
2021/07/27 09:05:37;;;;;;;4.40;2.45;;;;;;;;;;5070968;28;20040;-79
2021/07/27 09:08:03;;;;;;;7.03;3.33;;;;;;;;;;5070900;28;20056;-79
2021/07/27 09:10:30;;;;;;;4.75;3.35;;;;;;;;;;5070922;28;20052;-79
2021/07/27 09:12:57;;;;;;;4.38;2.67;;;;;;;;;;5071167;28;20071;-79
2021/07/27 09:15:24;;;;;;;4.65;2.38;;;;;;;;;;5071020;28;20109;-79
2021/07/27 09:17:52;;;;;;;3.58;2.63;;;;;;;;;;5070770;28;20049;-79
2021/07/27 09:20:24;;;;;;;7.32;3.15;;;;;;;;;;5070954;28;20056;-79
2021/07/27 09:22:52;;;;;;;3.53;2.25;;;;;;;;;;5070688;28;20055;-79
2021/07/27 09:25:19;;;;;;;5.60;3.42;;;;;;;;;;5070951;28;20044;-78
2021/07/27 09:27:45;;;;;;;12.63;4.05;;;;;;;;;;5071016;28;20098;-80
2021/07/27 09:30:21;;;;;;;7.13;3.40;;;;;;;;;;5070836;28;20052;-79
2021/07/27 09:32:48;;;;;;;6.38;2.55;;;;;;;;;;5070838;28;20045;-79
2021/07/27 09:35:15;;;;;;;4.45;2.78;;;;;;;;;;5070578;28;20155;-79
2021/07/27 09:37:41;;;;;;;4.45;3.10;;;;;;;;;;5070742;28;20063;-79
2021/07/27 09:40:10;;;;;;;3.20;2.38;;;;;;;;;;5070768;28;20048;-77
2021/07/27 09:42:37;;;;;;;2.53;2.03;;;;;;;;;;5070615;28;20056;-79
2021/07/27 09:45:04;;;;;;;5.72;2.20;;;;;;;;;;5067822;28;20485;-78
2021/07/27 09:47:31;;;;;;;4.25;3.00;;;;;;;;;;5070929;28;20109;-80
2021/07/27 09:49:58;;;;;;;3.42;2.35;;;;;;;;;;5074531;28;20052;-78
2021/07/27 09:52:25;;;;;;;3.63;2.40;;;;;;;;;;5074872;28;20052;-78
2021/07/27 09:54:54;;;;;;;5.43;2.45;;;;;;;;;;5074578;28;20052;-79
2021/07/27 09:57:22;;;;;;;4.30;2.17;;;;;;;;;;5074634;28;20458;-79
2021/07/27 09:59:50;;;;;;;8.48;2.15;;;;;;;;;;5074478;28;20105;-79
2021/07/27 10:02:18;;;;;;;4.28;1.52;;;;;;;;;;5074478;28;20440;-78
2021/07/27 10:04:47;;;;;;;3.00;1.60;;;;;;;;;;5074409;28;20049;-79
2021/07/27 10:07:14;;;;;;;4.28;2.33;;;;;;;;;;5074551;28;20052;-79
2021/07/27 10:09:41;;;;;;;4.18;2.55;;;;;;;;;;5074332;28;20496;-79
2021/07/27 10:12:08;;;;;;;4.80;2.35;;;;;;;;;;5074291;28;20098;-78
2021/07/27 10:14:40;;;;;;;3.58;2.05;;;;;;;;;;5074124;28;20056;-78
2021/07/27 10:17:06;;;;;;;2.67;1.40;;;;;;;;;;5074519;28;20080;-79
2021/07/27 10:19:38;;;;;;;6.00;2.13;;;;;;;;;;5074090;28;20550;-78
2021/07/27 10:22:05;;;;;;;4.38;2.78;;;;;;;;;;5074320;28;20408;-78
2021/07/27 10:24:35;;;;;;;2.70;1.83;;;;;;;;;;5073999;28;20048;-78
2021/07/27 10:27:06;;;;;;;5.03;2.80;;;;;;;;;;5073893;28;20114;-78
2021/07/27 10:29:33;;;;;;;5.57;1.42;;;;;;;;;;5074314;28;20052;-78
2021/07/27 10:32:11;;;;;;;4.18;2.25;;;;;;;;;;5071796;28;20048;-80
2021/07/27 10:34:40;;;;;;;4.35;1.33;;;;;;;;;;5073851;28;20500;-78
2021/07/27 10:37:07;;;;;;;3.58;1.88;;;;;;;;;;5073833;28;20062;-78
2021/07/27 10:39:34;;;;;;;2.72;1.70;;;;;;;;;;5073713;28;20427;-78
2021/07/27 10:42:07;;;;;;;2.75;1.23;;;;;;;;;;5073398;28;20060;-80
2021/07/27 10:44:36;;;;;;;3.42;1.92;;;;;;;;;;5073677;28;20565;-78
2021/07/27 10:47:04;;;;;;;2.55;1.50;;;;;;;;;;5073539;28;20053;-79
2021/07/27 10:49:30;;;;;;;2.92;1.48;;;;;;;;;;5073703;28;20114;-79
2021/07/27 10:51:59;;;;;;;6.70;1.92;;;;;;;;;;5073532;28;20094;-79
2021/07/27 10:54:27;;;;;;;3.28;1.55;;;;;;;;;;5073249;28;20044;-80
2021/07/27 10:56:58;;;;;;;4.40;1.85;;;;;;;;;;5073600;28;20400;-78
2021/07/27 10:59:26;;;;;;;4.68;1.58;;;;;;;;;;5072702;28;20056;-80
2021/07/27 11:01:52;;;;;;;3.03;1.55;;;;;;;;;;5073322;28;20056;-79
2021/07/27 11:04:26;;;;;;;5.85;1.60;;;;;;;;;;5072790;28;20571;-76
2021/07/27 11:06:52;;;;;;;2.25;1.33;;;;;;;;;;5072430;28;20056;-80
2021/07/27 11:09:19;;;;;;;3.58;2.05;;;;;;;;;;5073126;28;20488;-79
2021/07/27 11:11:46;;;;;;;7.38;2.88;;;;;;;;;;5073421;28;20053;-78
2021/07/27 11:14:20;;;;;;;5.93;1.63;;;;;;;;;;5072935;28;20044;-78
2021/07/27 11:16:46;;;;;;;6.30;1.52;;;;;;;;;;5072976;28;20048;-80
2021/07/27 11:19:24;;;;;;;4.28;1.50;;;;;;;;;;5072263;28;20048;-80
2021/07/27 11:21:50;;;;;;;5.53;2.58;;;;;;;;;;5071396;28;20049;-79
2021/07/27 11:24:17;;;;;;;3.75;1.27;;;;;;;;;;5072379;28;20044;-78
2021/07/27 11:26:49;;;;;;;5.68;3.42;;;;;;;;;;5071499;28;20045;-79
2021/07/27 11:29:17;;;;;;;4.50;2.20;;;;;;;;;;5071474;28;20443;-80
2021/07/27 11:31:47;;;;;;;3.95;1.58;;;;;;;;;;5071819;28;20076;-79
2021/07/27 11:34:13;;;;;;;3.47;1.45;;;;;;;;;;5072155;28;20047;-79
2021/07/27 11:36:51;;;;;;;4.18;1.70;;;;;;;;;;5072920;28;20045;-78
2021/07/27 11:39:17;;;;;;;4.70;1.48;;;;;;;;;;5071876;28;21487;-79
2021/07/27 11:41:44;;;;;;;4.00;2.47;;;;;;;;;;5063943;28;20090;-78
2021/07/27 11:44:12;;;;;;;3.70;1.33;;;;;;;;;;5071690;28;20044;-76
2021/07/27 11:46:44;;;;;;;4.43;1.73;;;;;;;;;;5070444;28;20143;-78
2021/07/27 11:49:10;;;;;;;2.17;1.30;;;;;;;;;;5068618;28;20049;-79
2021/07/27 11:51:37;;;;;;;2.60;1.80;;;;;;;;;;5072088;28;20048;-78
2021/07/27 11:54:05;;;;;;;2.90;1.63;;;;;;;;;;5071801;28;20059;-78
2021/07/27 11:56:32;;;;;;;2.85;1.55;;;;;;;;;;5072338;28;20411;-78
2021/07/27 11:59:01;;;;;;;2.92;1.85;;;;;;;;;;5071641;28;20134;-79
2021/07/27 12:01:37;;;;;;;5.38;2.90;;;;;;;;;;5072134;28;20045;-78
2021/07/27 12:04:04;;;;;;;4.15;2.53;;;;;;;;;;5072053;28;20450;-78
2021/07/27 12:06:31;;;;;;;3.53;2.30;;;;;;;;;;5072004;28;20041;-78
2021/07/27 12:08:59;;;;;;;3.13;1.67;;;;;;;;;;5071956;28;20488;-78
2021/07/27 12:11:27;;;;;;;5.22;2.22;;;;;;;;;;5070815;28;20048;-78
2021/07/27 12:13:53;;;;;;;4.00;2.75;;;;;;;;;;5071895;28;20074;-78
2021/07/27 12:16:20;;;;;;;4.43;2.67;;;;;;;;;;5071805;28;20488;-78
2021/07/27 12:18:46;;;;;;;2.80;2.42;;;;;;;;;;5071707;28;20067;-79
2021/07/27 12:21:13;;;;;;;6.45;2.00;;;;;;;;;;5071764;28;20094;-78
2021/07/27 12:23:39;;;;;;;7.22;3.10;;;;;;;;;;5071455;28;20048;-80
2021/07/27 12:26:06;;;;;;;3.22;2.90;;;;;;;;;;5071229;28;20102;-78
2021/07/27 12:28:34;;;;;;;5.72;3.70;;;;;;;;;;5069861;28;20098;-78
2021/07/27 12:31:00;;;;;;;4.38;2.20;;;;;;;;;;5071676;28;20454;-78
2021/07/27 12:33:29;;;;;;;4.60;2.25;;;;;;;;;;5071685;28;20049;-77
2021/07/27 12:35:55;;;;;;;4.30;2.17;;;;;;;;;;5071074;28;20040;-78
2021/07/27 12:38:23;;;;;;;3.95;2.47;;;;;;;;;;5071466;28;20045;-78
2021/07/27 12:40:49;;;;;;;3.13;1.85;;;;;;;;;;5071257;28;20102;-78
2021/07/27 12:43:16;;;;;;;4.30;2.55;;;;;;;;;;5071236;28;20448;-78
2021/07/27 12:45:44;;;;;;;3.90;2.70;;;;;;;;;;5071680;28;20081;-79
2021/07/27 12:48:11;;;;;;;5.15;2.53;;;;;;;;;;5071257;28;20048;-78
2021/07/27 12:50:37;;;;;;;3.22;2.10;;;;;;;;;;5071345;28;20405;-78
2021/07/27 12:53:04;;;;;;;3.10;1.90;;;;;;;;;;5070792;28;20045;-78
2021/07/27 12:55:30;;;;;;;8.43;2.75;;;;;;;;;;5071265;28;20052;-78
2021/07/27 12:57:57;;;;;;;4.85;2.47;;;;;;;;;;5071240;28;20055;-77
2021/07/27 13:00:24;;;;;;;5.93;1.55;;;;;;;;;;5071139;28;20052;-79
2021/07/27 13:02:52;;;;;;;8.25;3.00;;;;;;;;;;5070984;28;20059;-78
2021/07/27 13:05:18;;;;;;;4.00;2.20;;;;;;;;;;5070930;28;20100;-77
2021/07/27 13:07:44;;;;;;;5.60;2.92;;;;;;;;;;5070937;28;20057;-79
2021/07/27 13:10:12;;;;;;;3.90;1.90;;;;;;;;;;5071470;28;20045;-77
2021/07/27 13:12:38;;;;;;;3.53;2.35;;;;;;;;;;5070847;28;20497;-77
2021/07/27 13:15:06;;;;;;;7.13;1.60;;;;;;;;;;5070531;28;20576;-76
2021/07/27 13:17:32;;;;;;;2.20;1.27;;;;;;;;;;5070996;28;21033;-78
2021/07/27 13:20:00;;;;;;;3.38;1.90;;;;;;;;;;5070821;28;20063;-78
2021/07/27 13:22:27;;;;;;;3.90;1.95;;;;;;;;;;5070352;28;20049;-77
2021/07/27 13:24:53;;;;;;;3.00;1.92;;;;;;;;;;5071043;28;20057;-78
2021/07/27 13:27:20;;;;;;;7.78;1.70;;;;;;;;;;5070940;28;20059;-78
2021/07/27 13:29:46;;;;;;;3.13;2.30;;;;;;;;;;5070827;28;20053;-79
2021/07/27 13:32:13;;;;;;;3.08;1.98;;;;;;;;;;5070690;28;20044;-78
2021/07/27 13:34:39;;;;;;;2.83;1.60;;;;;;;;;;5070711;28;20052;-79
2021/07/27 13:37:11;;;;;;;3.05;1.83;;;;;;;;;;5070577;28;20053;-78
2021/07/27 13:39:37;;;;;;;3.05;2.05;;;;;;;;;;5070686;28;20067;-78
2021/07/27 13:42:04;;;;;;;2.58;1.77;;;;;;;;;;5070542;28;20097;-77
2021/07/27 13:44:31;;;;;;;3.88;1.98;;;;;;;;;;5070875;28;20057;-78
2021/07/27 13:46:58;;;;;;;5.03;1.73;;;;;;;;;;5070598;28;20102;-78
2021/07/27 13:49:26;;;;;;;2.58;1.65;;;;;;;;;;5070950;28;20053;-78
2021/07/27 13:51:53;;;;;;;3.03;2.17;;;;;;;;;;5070518;28;20051;-78
2021/07/27 13:54:21;;;;;;;3.10;1.77;;;;;;;;;;5070677;28;20053;-78
2021/07/27 13:56:47;;;;;;;1.77;0.98;;;;;;;;;;5070697;28;20048;-77
2021/07/27 13:59:14;;;;;;;4.45;1.77;;;;;;;;;;5070423;28;20492;-78
2021/07/27 14:01:40;;;;;;;2.63;1.17;;;;;;;;;;5070516;28;20053;-77
2021/07/27 14:04:06;;;;;;;3.53;2.38;;;;;;;;;;5070252;28;20549;-78
2021/07/27 14:06:35;;;;;;;3.63;1.27;;;;;;;;;;5070297;28;20557;-79
2021/07/27 14:09:01;;;;;;;3.03;1.42;;;;;;;;;;5070469;28;20098;-79
2021/07/27 14:11:29;;;;;;;2.72;1.85;;;;;;;;;;5070526;28;20074;-77
2021/07/27 14:13:56;;;;;;;5.13;1.73;;;;;;;;;;5070339;28;20411;-78
2021/07/27 14:16:22;;;;;;;6.50;2.08;;;;;;;;;;5070155;28;20484;-78
2021/07/27 14:18:49;;;;;;;2.67;1.50;;;;;;;;;;5070027;28;20056;-78
2021/07/27 14:21:15;;;;;;;4.70;2.33;;;;;;;;;;5070437;28;20053;-79
2021/07/27 14:23:42;;;;;;;6.13;1.73;;;;;;;;;;5070365;28;20056;-78
2021/07/27 14:26:09;;;;;;;4.45;1.88;;;;;;;;;;5070283;28;20055;-79
2021/07/27 14:28:37;;;;;;;5.93;2.20;;;;;;;;;;5070320;28;20143;-78
2021/07/27 14:31:03;;;;;;;4.63;1.95;;;;;;;;;;5070087;28;20045;-78
2021/07/27 14:33:30;;;;;;;3.97;0.95;;;;;;;;;;5070320;28;20721;-78
2021/07/27 14:35:56;;;;;;;5.03;2.50;;;;;;;;;;5072673;28;20067;-78
2021/07/27 14:38:23;;;;;;;5.53;3.00;;;;;;;;;;5073638;28;20055;-78
2021/07/27 14:40:49;;;;;;;4.20;1.33;;;;;;;;;;5073585;28;20488;-78
2021/07/27 14:43:16;;;;;;;5.20;1.83;;;;;;;;;;5073469;28;20048;-79
2021/07/27 14:45:43;;;;;;;2.40;1.30;;;;;;;;;;5073558;28;20056;-78
2021/07/27 14:48:13;;;;;;;3.05;1.95;;;;;;;;;;5073899;28;20041;-77
2021/07/27 14:50:39;;;;;;;5.85;1.40;;;;;;;;;;5073674;28;20051;-78
2021/07/27 14:53:06;;;;;;;4.10;1.52;;;;;;;;;;5073830;28;20045;-77
2021/07/27 14:55:32;;;;;;;2.60;1.45;;;;;;;;;;5073526;28;20052;-78
2021/07/27 14:57:59;;;;;;;5.15;2.47;;;;;;;;;;5073400;28;20139;-77
2021/07/27 15:00:26;;;;;;;4.80;3.05;;;;;;;;;;5073126;28;20055;-78